Time;durP1;ratioP1;P1;durP2;ratioP2;P2;SDS_P1;SDS_P2;PMS_P1;PMS_P2;Temp;Humidity;BMP_temperature;BMP_pressure;BME280_temperature;BME280_humidity;BME280_pressure;Samples;Min_cycle;Max_cycle;Signal;HPM_P1;HPM_P2
2022/10/03 00:01:50;;;;;;;1.50;1.10;;;10.40;99.90;;;;;;5065589;23;20165;-70
2022/10/03 00:04:22;;;;;;;1.40;1.30;;;10.40;99.90;;;;;;5066080;23;20197;-70
2022/10/03 00:06:41;;;;;;;1.23;1.00;;;10.40;99.90;;;;;;5066193;23;20249;-70
2022/10/03 00:09:11;;;;;;;1.53;1.17;;;10.40;99.90;;;;;;5066259;23;20245;-70
2022/10/03 00:11:33;;;;;;;3.90;1.30;;;10.50;99.90;;;;;;5065457;23;20237;-70
2022/10/03 00:13:42;;;;;;;1.50;1.10;;;10.60;99.90;;;;;;5065942;23;20711;-70
2022/10/03 00:15:52;;;;;;;2.10;1.50;;;10.70;99.90;;;;;;5040210;23;20166;-71
2022/10/03 00:18:18;;;;;;;4.07;1.50;;;10.70;99.90;;;;;;5066204;23;20277;-69
2022/10/03 00:20:18;;;;;;;1.40;1.30;;;10.90;99.90;;;;;;5065372;23;20169;-70
2022/10/03 00:22:51;;;;;;;5.87;1.90;;;10.80;99.90;;;;;;5066237;23;20699;-71
2022/10/03 00:25:16;;;;;;;1.67;1.53;;;10.70;99.90;;;;;;5066037;23;20217;-70
2022/10/03 00:27:37;;;;;;;2.43;1.60;;;10.70;99.90;;;;;;5066126;23;20189;-70
2022/10/03 00:29:38;;;;;;;4.40;1.80;;;10.70;99.90;;;;;;5065908;23;20155;-69
2022/10/03 00:31:54;;;;;;;3.03;1.70;;;10.70;99.90;;;;;;5065437;23;20166;-71
2022/10/03 00:34:13;;;;;;;4.93;1.80;;;10.70;99.90;;;;;;5065762;23;20190;-70
2022/10/03 00:36:33;;;;;;;3.17;2.07;;;10.70;99.90;;;;;;5066477;23;20478;-70
2022/10/03 00:38:43;;;;;;;2.73;1.80;;;10.70;99.90;;;;;;5066345;23;20605;-70
2022/10/03 00:41:08;;;;;;;2.30;2.00;;;10.70;99.90;;;;;;5065041;23;20158;-70
2022/10/03 00:43:30;;;;;;;5.10;2.37;;;10.50;99.90;;;;;;5065946;23;20178;-70
2022/10/03 00:45:56;;;;;;;3.70;2.07;;;10.50;99.90;;;;;;5065864;23;20190;-69
2022/10/03 00:48:11;;;;;;;2.00;1.87;;;10.40;99.90;;;;;;5065969;23;20506;-70
2022/10/03 00:50:21;;;;;;;3.27;1.90;;;10.60;99.90;;;;;;5065279;23;20926;-70
2022/10/03 00:52:40;;;;;;;2.13;1.87;;;10.60;99.90;;;;;;5066009;23;20154;-70
2022/10/03 00:55:05;;;;;;;2.57;1.87;;;10.50;99.90;;;;;;5066063;23;20846;-71
2022/10/03 00:57:22;;;;;;;2.50;2.13;;;10.40;99.90;;;;;;5065990;23;20165;-70
2022/10/03 00:59:53;;;;;;;4.33;2.50;;;10.30;99.90;;;;;;5066006;23;20185;-71
2022/10/03 01:01:54;;;;;;;4.50;2.37;;;10.10;99.90;;;;;;5065170;23;20612;-70
2022/10/03 01:04:04;;;;;;;4.33;2.43;;;10.00;99.90;;;;;;5065810;23;20189;-70
2022/10/03 01:06:43;;;;;;;6.33;3.20;;;9.90;99.90;;;;;;5066362;23;20624;-70
2022/10/03 01:08:55;;;;;;;3.70;2.90;;;9.80;99.90;;;;;;5040187;23;20525;-70
2022/10/03 01:11:03;;;;;;;7.10;3.63;;;9.70;99.90;;;;;;5065549;23;20976;-70
2022/10/03 01:13:38;;;;;;;7.33;3.70;;;9.60;99.90;;;;;;5040096;23;20187;-70
2022/10/03 01:15:55;;;;;;;4.83;3.33;;;9.60;99.90;;;;;;5066140;23;20180;-69
2022/10/03 01:18:10;;;;;;;5.63;3.40;;;9.50;99.90;;;;;;5065944;23;20190;-70
2022/10/03 01:20:17;;;;;;;5.67;3.60;;;9.60;99.90;;;;;;5065419;23;20162;-69
2022/10/03 01:22:52;;;;;;;9.80;4.23;;;9.60;99.90;;;;;;5066064;23;20716;-70
2022/10/03 01:25:16;;;;;;;8.33;4.00;;;9.50;99.90;;;;;;5066082;23;20192;-69
2022/10/03 01:30:21;;;;;;;5.40;3.70;;;9.30;99.90;;;;;;5039292;23;20266;-69
2022/10/03 01:30:22;;;;;;;6.60;3.83;;;9.20;99.90;;;;;;5065576;23;20181;-70
2022/10/03 01:33:01;;;;;;;10.40;4.60;;;9.10;99.90;;;;;;5065894;23;20181;-70
2022/10/03 01:35:23;;;;;;;8.60;4.20;;;9.10;99.90;;;;;;4967795;23;20233;-70
2022/10/03 01:37:36;;;;;;;7.60;4.53;;;9.00;99.90;;;;;;5040417;23;20173;-70
2022/10/03 01:39:52;;;;;;;10.13;5.17;;;8.90;99.90;;;;;;5066208;23;20165;-68
2022/10/03 01:42:09;;;;;;;13.93;7.00;;;8.90;99.90;;;;;;5065109;23;20216;-71
2022/10/03 01:44:25;;;;;;;10.67;5.67;;;8.90;99.90;;;;;;5065875;23;20712;-69
2022/10/03 01:46:37;;;;;;;7.40;4.83;;;8.80;99.90;;;;;;5067253;23;20165;-68
2022/10/03 01:48:48;;;;;;;17.00;6.67;;;8.80;99.90;;;;;;5067401;23;20165;-68
2022/10/03 01:51:17;;;;;;;9.37;4.87;;;8.80;99.90;;;;;;5066587;23;20235;-68
2022/10/03 01:53:41;;;;;;;7.83;5.47;;;8.70;99.90;;;;;;5056473;23;20188;-68
2022/10/03 01:55:58;;;;;;;10.77;5.87;;;8.60;99.90;;;;;;5067205;23;20161;-68
2022/10/03 01:58:04;;;;;;;12.33;6.20;;;8.50;99.90;;;;;;5041330;23;20218;-68
2022/10/03 02:00:11;;;;;;;11.03;6.00;;;8.50;99.90;;;;;;5067072;23;20182;-69
2022/10/03 02:02:24;;;;;;;14.63;6.17;;;8.50;99.90;;;;;;5067255;23;20268;-69
2022/10/03 02:04:48;;;;;;;12.63;6.23;;;8.60;99.90;;;;;;5041446;23;20206;-68
2022/10/03 02:07:15;;;;;;;11.93;6.47;;;8.60;99.90;;;;;;5067376;23;20950;-69
2022/10/03 02:09:50;;;;;;;17.00;7.90;;;8.70;99.90;;;;;;5067354;23;20177;-68
2022/10/03 02:12:12;;;;;;;15.40;7.33;;;8.70;99.90;;;;;;5066386;23;20513;-69
2022/10/03 02:14:29;;;;;;;14.27;7.30;;;8.80;99.90;;;;;;5067454;23;20185;-68
2022/10/03 02:16:42;;;;;;;15.13;6.83;;;8.90;99.90;;;;;;5062225;23;20173;-68
2022/10/03 02:18:59;;;;;;;23.93;8.20;;;9.00;99.90;;;;;;5067754;23;20565;-69
2022/10/03 02:21:18;;;;;;;19.20;8.40;;;9.00;99.90;;;;;;5040950;23;20167;-69
2022/10/03 02:23:36;;;;;;;13.57;8.33;;;9.10;99.90;;;;;;5067357;23;20185;-68
2022/10/03 02:26:11;;;;;;;13.67;7.40;;;9.10;99.90;;;;;;5067149;23;20375;-69
2022/10/03 02:28:31;;;;;;;15.90;7.60;;;9.10;99.90;;;;;;5067304;23;20157;-69
2022/10/03 02:31:00;;;;;;;12.93;6.87;;;9.10;99.90;;;;;;5066214;23;20159;-68
2022/10/03 02:33:19;;;;;;;13.63;7.30;;;9.20;99.90;;;;;;5040057;23;20214;-69
2022/10/03 02:35:34;;;;;;;9.80;5.80;;;9.30;99.90;;;;;;5042955;23;20159;-69
2022/10/03 02:37:50;;;;;;;10.00;5.87;;;9.30;99.90;;;;;;5040820;23;20169;-68
2022/10/03 02:40:03;;;;;;;6.57;4.57;;;9.30;99.90;;;;;;5042980;23;20629;-68
2022/10/03 02:42:18;;;;;;;8.10;4.97;;;9.20;99.90;;;;;;5040270;23;20165;-68
2022/10/03 02:44:52;;;;;;;12.63;5.80;;;9.10;99.90;;;;;;5042635;23;20637;-69
2022/10/03 02:47:07;;;;;;;11.63;5.50;;;8.90;99.90;;;;;;5042769;23;20236;-68
2022/10/03 02:49:26;;;;;;;13.27;7.33;;;8.90;99.90;;;;;;5042768;23;20200;-69
2022/10/03 02:51:58;;;;;;;10.80;6.10;;;9.00;99.90;;;;;;5042172;23;20165;-69
2022/10/03 02:54:13;;;;;;;18.57;9.57;;;9.00;99.90;;;;;;5042680;23;20700;-69
2022/10/03 02:56:51;;;;;;;17.37;10.00;;;9.00;99.90;;;;;;5042643;23;20155;-69
2022/10/03 02:59:25;;;;;;;26.23;10.00;;;9.10;99.90;;;;;;5042780;23;20169;-69
2022/10/03 03:02:08;;;;;;;15.67;8.23;;;9.10;99.90;;;;;;5026286;23;20171;-68
2022/10/03 03:04:46;;;;;;;16.93;8.50;;;9.20;99.90;;;;;;5042326;23;20260;-69
2022/10/03 03:07:11;;;;;;;16.47;8.20;;;9.10;99.90;;;;;;5042557;23;20163;-68
2022/10/03 03:09:43;;;;;;;16.47;8.70;;;9.00;99.90;;;;;;5042491;23;20238;-68
2022/10/03 03:11:53;;;;;;;16.20;7.43;;;9.00;99.90;;;;;;5042036;23;20167;-68
2022/10/03 03:14:35;;;;;;;19.87;8.10;;;8.90;99.90;;;;;;5042754;23;20241;-68
2022/10/03 03:16:53;;;;;;;20.00;8.87;;;8.90;99.90;;;;;;5042509;23;20624;-68
2022/10/03 03:19:42;;;;;;;15.40;8.30;;;8.80;99.90;;;;;;5042665;23;20166;-68
2022/10/03 03:21:56;;;;;;;16.73;7.53;;;8.70;99.90;;;;;;5033880;23;20166;-68
2022/10/03 03:24:08;;;;;;;15.50;7.23;;;8.70;99.90;;;;;;5042945;23;20864;-67
2022/10/03 03:26:34;;;;;;;16.47;6.67;;;8.60;99.90;;;;;;5042698;23;20173;-69
2022/10/03 03:28:47;;;;;;;15.97;7.77;;;8.50;99.90;;;;;;5042863;23;20230;-68
2022/10/03 03:30:57;;;;;;;15.13;7.50;;;8.40;99.90;;;;;;5041934;23;20168;-69
2022/10/03 03:33:42;;;;;;;19.50;7.93;;;8.40;99.90;;;;;;5050823;23;20176;-70
2022/10/03 03:36:02;;;;;;;15.80;7.10;;;8.40;99.90;;;;;;4969199;23;20179;-69
2022/10/03 03:38:23;;;;;;;15.17;6.50;;;8.40;99.90;;;;;;4969202;23;20174;-69
2022/10/03 03:41:13;;;;;;;12.10;6.00;;;8.50;99.90;;;;;;4992755;23;20193;-69
2022/10/03 03:43:40;;;;;;;15.87;7.80;;;8.50;99.90;;;;;;5040846;23;20233;-69
2022/10/03 03:45:55;;;;;;;18.20;7.77;;;8.60;99.90;;;;;;5066474;23;20636;-68
2022/10/03 03:48:11;;;;;;;12.63;6.67;;;8.60;99.90;;;;;;5066530;23;20197;-69
2022/10/03 03:50:23;;;;;;;14.30;6.67;;;8.70;99.90;;;;;;5066026;23;20511;-68
2022/10/03 03:52:44;;;;;;;15.07;8.17;;;8.80;99.90;;;;;;5040799;23;20242;-69
2022/10/03 03:55:14;;;;;;;16.43;7.47;;;8.80;99.90;;;;;;5066527;23;20168;-69
2022/10/03 03:57:21;;;;;;;12.67;7.27;;;8.80;99.90;;;;;;5066495;23;20165;-69
2022/10/03 03:59:34;;;;;;;16.27;8.03;;;8.80;99.90;;;;;;5066437;23;20173;-69
2022/10/03 04:01:50;;;;;;;21.37;8.23;;;8.90;99.90;;;;;;5065858;23;20236;-69
2022/10/03 04:04:04;;;;;;;53.50;10.30;;;8.90;99.90;;;;;;5066525;23;20177;-69
2022/10/03 04:06:21;;;;;;;20.03;8.20;;;8.90;99.90;;;;;;5066473;23;20256;-68
2022/10/03 04:08:41;;;;;;;21.33;9.87;;;8.80;99.90;;;;;;5066130;23;20241;-69
2022/10/03 04:11:15;;;;;;;17.60;8.50;;;9.00;99.90;;;;;;5065535;23;20606;-69
2022/10/03 04:13:31;;;;;;;16.53;9.00;;;9.00;99.90;;;;;;5040425;23;20213;-69
2022/10/03 04:15:31;;;;;;;21.60;9.87;;;9.00;99.90;;;;;;5066514;23;20213;-68
2022/10/03 04:20:56;;;;;;;15.97;7.80;;;9.00;99.90;;;;;;5065301;23;20197;-69
2022/10/03 04:23:12;;;;;;;19.43;8.93;;;9.10;99.90;;;;;;5066042;23;20527;-69
2022/10/03 04:25:27;;;;;;;20.27;8.87;;;9.10;99.90;;;;;;5066117;23;20197;-69
2022/10/03 04:28:09;;;;;;;16.50;9.53;;;9.10;99.90;;;;;;5066126;23;20564;-69
2022/10/03 04:30:31;;;;;;;20.63;10.43;;;9.20;99.90;;;;;;4967827;23;20575;-69
2022/10/03 04:32:49;;;;;;;25.57;11.93;;;9.20;99.90;;;;;;5065061;23;20168;-69
2022/10/03 04:35:02;;;;;;;21.90;10.37;;;9.10;99.90;;;;;;5040376;23;20524;-70
2022/10/03 04:37:16;;;;;;;21.63;11.53;;;9.10;99.90;;;;;;5040564;23;20167;-69
2022/10/03 04:39:35;;;;;;;21.40;11.00;;;9.10;99.90;;;;;;5065796;23;20162;-69
2022/10/03 04:41:48;;;;;;;24.50;11.30;;;9.20;99.90;;;;;;5039516;23;20525;-69
2022/10/03 04:44:01;;;;;;;27.73;12.17;;;9.20;99.90;;;;;;5040283;23;20175;-69
2022/10/03 04:46:33;;;;;;;39.10;13.30;;;9.20;99.90;;;;;;5066040;23;20196;-69
2022/10/03 04:48:49;;;;;;;33.50;12.63;;;9.20;99.90;;;;;;5065170;23;20166;-69
2022/10/03 04:51:06;;;;;;;34.07;12.60;;;9.10;99.90;;;;;;5065327;23;20212;-68
2022/10/03 04:53:27;;;;;;;28.83;12.07;;;9.10;99.90;;;;;;5066285;23;20182;-69
2022/10/03 04:55:46;;;;;;;24.23;12.33;;;9.10;99.90;;;;;;5066093;23;20168;-68
2022/10/03 04:57:49;;;;;;;24.10;10.60;;;9.10;99.90;;;;;;5066161;23;20194;-69
2022/10/03 04:59:58;;;;;;;21.80;11.33;;;9.10;99.90;;;;;;5040362;23;20574;-68
2022/10/03 05:02:24;;;;;;;33.53;14.27;;;8.90;99.90;;;;;;5065222;23;20173;-70
2022/10/03 05:04:35;;;;;;;34.23;13.80;;;8.80;99.90;;;;;;5065802;23;20276;-69
2022/10/03 05:07:12;;;;;;;34.37;13.20;;;8.60;99.90;;;;;;5066018;23;20240;-69
2022/10/03 05:09:22;;;;;;;23.67;10.53;;;8.50;99.90;;;;;;5065826;23;20155;-68
2022/10/03 05:12:05;;;;;;;25.33;10.57;;;8.50;99.90;;;;;;5065277;23;20154;-68
2022/10/03 05:14:27;;;;;;;29.07;10.33;;;8.60;99.90;;;;;;5050165;23;20182;-69
2022/10/03 05:16:46;;;;;;;33.50;12.63;;;8.60;99.90;;;;;;5065850;23;20600;-69
2022/10/03 05:18:51;;;;;;;28.90;11.30;;;8.70;99.90;;;;;;5066100;23;20198;-69
2022/10/03 05:20:58;;;;;;;27.17;11.10;;;8.70;99.90;;;;;;5066072;23;20158;-69
2022/10/03 05:23:01;;;;;;;21.57;10.47;;;8.70;99.90;;;;;;5067500;23;20161;-69
2022/10/03 05:25:27;;;;;;;32.40;12.70;;;8.70;99.90;;;;;;5067393;23;20190;-69
2022/10/03 05:27:35;;;;;;;26.17;11.83;;;8.70;99.90;;;;;;5067574;23;20604;-69
2022/10/03 05:30:03;;;;;;;22.47;10.07;;;8.90;99.90;;;;;;5067316;23;20190;-69
2022/10/03 05:32:22;;;;;;;23.77;11.60;;;8.80;99.90;;;;;;5066701;23;20168;-69
2022/10/03 05:34:51;;;;;;;24.30;11.37;;;8.80;99.90;;;;;;5041585;23;20191;-69
2022/10/03 05:37:20;;;;;;;18.97;9.57;;;8.80;99.90;;;;;;5041877;23;20167;-69
2022/10/03 05:39:55;;;;;;;16.20;8.43;;;8.80;99.90;;;;;;5041697;23;20167;-69
2022/10/03 05:42:16;;;;;;;41.53;13.57;;;8.80;99.90;;;;;;5041423;23;20236;-68
2022/10/03 05:44:24;;;;;;;20.90;10.13;;;8.80;99.90;;;;;;5068495;23;20178;-68
2022/10/03 05:46:37;;;;;;;33.93;12.20;;;8.80;99.90;;;;;;5068008;23;20169;-70
2022/10/03 05:49:21;;;;;;;28.70;10.13;;;8.90;99.90;;;;;;5067948;23;20499;-68
2022/10/03 05:51:49;;;;;;;17.83;9.37;;;8.90;99.90;;;;;;5066661;23;20169;-69
2022/10/03 05:54:22;;;;;;;19.93;9.77;;;8.90;99.90;;;;;;5041748;23;20190;-68
2022/10/03 05:56:32;;;;;;;27.67;12.30;;;8.90;99.90;;;;;;5067908;23;20167;-68
2022/10/03 05:58:57;;;;;;;38.27;16.43;;;8.90;99.90;;;;;;5041440;23;20173;-70
2022/10/03 06:01:30;;;;;;;27.50;13.20;;;8.70;99.90;;;;;;5066581;23;20166;-69
2022/10/03 06:03:43;;;;;;;33.17;15.57;;;8.60;99.90;;;;;;5067369;23;20663;-70
2022/10/03 06:06:07;;;;;;;29.97;13.87;;;8.50;99.90;;;;;;5067224;23;20562;-69
2022/10/03 06:08:20;;;;;;;24.57;11.83;;;8.50;99.90;;;;;;5067312;23;20191;-70
2022/10/03 06:10:44;;;;;;;26.10;12.70;;;8.50;99.90;;;;;;5040598;23;20680;-69
2022/10/03 06:13:10;;;;;;;24.93;11.93;;;8.50;99.90;;;;;;5067266;23;20158;-70
2022/10/03 06:15:34;;;;;;;19.83;9.13;;;8.60;99.90;;;;;;5067548;23;20508;-69
2022/10/03 06:17:59;;;;;;;16.77;7.87;;;8.70;99.90;;;;;;5067548;23;20176;-70
2022/10/03 06:20:15;;;;;;;23.30;11.03;;;8.80;99.90;;;;;;5067355;23;20162;-70
2022/10/03 06:22:34;;;;;;;31.17;15.40;;;8.90;99.90;;;;;;5067469;23;20193;-70
2022/10/03 06:24:52;;;;;;;29.50;11.30;;;8.90;99.90;;;;;;5067087;23;20277;-70
2022/10/03 06:27:05;;;;;;;173.10;28.13;;;9.10;99.90;;;;;;5067455;23;20154;-70
2022/10/03 06:29:34;;;;;;;107.47;27.00;;;9.10;99.90;;;;;;5067213;23;20163;-69
2022/10/03 06:32:03;;;;;;;115.20;22.73;;;9.10;99.90;;;;;;5066246;23;20158;-70
2022/10/03 06:34:18;;;;;;;116.70;25.30;;;9.10;99.90;;;;;;5067351;23;20201;-70
2022/10/03 06:36:41;;;;;;;88.83;19.37;;;9.10;99.90;;;;;;5066830;23;20169;-69
2022/10/03 06:39:19;;;;;;;110.57;21.30;;;9.20;99.90;;;;;;5067122;23;20200;-68
2022/10/03 06:41:25;;;;;;;97.07;22.27;;;9.30;99.90;;;;;;5066310;23;20870;-70
2022/10/03 06:43:57;;;;;;;105.60;19.40;;;9.30;99.90;;;;;;5067015;23;20565;-70
2022/10/03 06:46:25;;;;;;;85.60;12.90;;;9.40;99.90;;;;;;5041052;23;20202;-70
2022/10/03 06:48:53;;;;;;;229.80;25.83;;;9.40;99.90;;;;;;5067092;23;20631;-70
2022/10/03 06:51:15;;;;;;;294.90;31.77;;;9.40;99.90;;;;;;5066412;23;20170;-69
2022/10/03 06:53:24;;;;;;;296.00;33.43;;;9.50;99.90;;;;;;5067061;23;20178;-70
2022/10/03 06:55:57;;;;;;;215.77;28.57;;;9.50;99.90;;;;;;5066832;23;20182;-69
2022/10/03 06:58:21;;;;;;;94.17;15.50;;;9.50;99.90;;;;;;5058875;23;20635;-70
2022/10/03 07:00:51;;;;;;;120.80;20.80;;;9.60;99.90;;;;;;5066339;23;20235;-70
2022/10/03 07:03:19;;;;;;;78.87;19.13;;;9.40;99.90;;;;;;5014822;23;20249;-70
2022/10/03 07:05:19;;;;;;;217.80;30.50;;;9.40;99.90;;;;;;5052298;23;20194;-71
2022/10/03 07:07:52;;;;;;;122.53;18.43;;;9.20;99.90;;;;;;5066645;23;20165;-71
2022/10/03 07:10:14;;;;;;;167.30;21.50;;;9.30;99.90;;;;;;5040895;23;20546;-71
2022/10/03 07:12:53;;;;;;;71.97;16.53;;;9.40;99.90;;;;;;5066906;23;20154;-70
2022/10/03 07:15:37;;;;;;;129.87;20.50;;;9.30;99.90;;;;;;5040830;23;20166;-70
2022/10/03 07:18:01;;;;;;;53.13;16.73;;;9.30;99.90;;;;;;5066876;23;20213;-69
2022/10/03 07:20:23;;;;;;;55.03;16.77;;;9.30;99.90;;;;;;5066866;23;20151;-70
2022/10/03 07:22:30;;;;;;;61.80;17.77;;;9.30;99.90;;;;;;5066712;23;20232;-69
2022/10/03 07:25:05;;;;;;;19.23;10.57;;;9.20;99.90;;;;;;5066594;23;20255;-70
2022/10/03 07:27:22;;;;;;;27.03;11.83;;;9.20;99.90;;;;;;5066696;23;20154;-70
2022/10/03 07:29:27;;;;;;;16.13;9.23;;;9.10;99.90;;;;;;5066704;23;20150;-70
2022/10/03 07:31:53;;;;;;;19.23;11.20;;;9.10;99.90;;;;;;5039892;23;20167;-69
2022/10/03 07:34:27;;;;;;;13.50;8.37;;;9.10;99.90;;;;;;5066659;23;20297;-70
2022/10/03 07:39:15;;;;;;;12.50;7.77;;;9.20;99.90;;;;;;5066606;23;20237;-70
2022/10/03 07:41:16;;;;;;;15.97;8.30;;;9.50;99.90;;;;;;5065988;23;20162;-69
2022/10/03 07:43:29;;;;;;;14.10;7.27;;;9.60;99.90;;;;;;5066616;23;20658;-70
2022/10/03 07:45:38;;;;;;;11.60;7.00;;;9.70;99.90;;;;;;5041819;23;20202;-69
2022/10/03 07:48:16;;;;;;;12.70;7.60;;;9.90;99.90;;;;;;5066638;23;20154;-70
2022/10/03 07:50:43;;;;;;;10.33;6.33;;;10.10;99.90;;;;;;5065724;23;20158;-70
2022/10/03 07:53:16;;;;;;;11.80;6.70;;;10.30;99.90;;;;;;5066724;23;20178;-69
2022/10/03 07:55:25;;;;;;;10.97;7.10;;;10.40;99.90;;;;;;5066493;23;20694;-70
2022/10/03 07:57:52;;;;;;;12.40;6.30;;;10.50;99.90;;;;;;5066646;23;20236;-69
2022/10/03 08:00:21;;;;;;;9.37;6.03;;;10.50;99.90;;;;;;5066509;23;20158;-70
2022/10/03 08:02:31;;;;;;;9.73;6.77;;;10.60;99.90;;;;;;5066567;23;20159;-70
2022/10/03 08:05:00;;;;;;;12.13;6.77;;;10.50;99.90;;;;;;5040337;23;20699;-69
2022/10/03 08:07:11;;;;;;;10.33;6.13;;;10.60;99.90;;;;;;5004692;23;20188;-70
2022/10/03 08:09:22;;;;;;;11.23;5.97;;;10.50;99.90;;;;;;5066515;23;20591;-68
2022/10/03 08:12:14;;;;;;;9.63;6.20;;;10.90;99.90;;;;;;5065948;23;20154;-69
2022/10/03 08:14:46;;;;;;;9.70;5.90;;;11.20;99.90;;;;;;5066384;23;20182;-66
2022/10/03 08:17:34;;;;;;;11.37;5.43;;;11.20;99.90;;;;;;5066433;23;20155;-69
2022/10/03 08:19:58;;;;;;;8.37;6.07;;;11.20;99.90;;;;;;4968545;23;20169;-70
2022/10/03 08:22:24;;;;;;;6.67;5.20;;;11.80;99.90;;;;;;5039700;23;20715;-70
2022/10/03 08:24:55;;;;;;;7.10;4.90;;;12.20;99.90;;;;;;5066259;23;20209;-69
2022/10/03 08:27:22;;;;;;;8.43;5.40;;;12.30;99.90;;;;;;5066321;23;20155;-68
2022/10/03 08:29:45;;;;;;;7.70;4.87;;;12.10;99.90;;;;;;5066453;23;20171;-69
2022/10/03 08:32:23;;;;;;;4.87;3.97;;;12.30;99.90;;;;;;5065219;23;20154;-70
2022/10/03 08:35:01;;;;;;;8.07;4.67;;;12.40;99.90;;;;;;5066494;23;20186;-69
2022/10/03 08:37:37;;;;;;;5.70;3.53;;;12.40;99.90;;;;;;5066287;23;20509;-69
2022/10/03 08:39:57;;;;;;;6.07;4.20;;;11.60;99.90;;;;;;5066370;23;20186;-69
2022/10/03 08:42:30;;;;;;;6.37;3.97;;;11.10;99.90;;;;;;5065673;23;20218;-69
2022/10/03 08:44:36;;;;;;;4.40;3.10;;;11.40;99.90;;;;;;5066494;23;20261;-69
2022/10/03 08:47:06;;;;;;;6.10;3.63;;;11.60;99.90;;;;;;5066597;23;20185;-69
2022/10/03 08:49:18;;;;;;;6.43;3.47;;;11.90;99.90;;;;;;5066534;23;20165;-70
2022/10/03 08:51:39;;;;;;;5.53;3.93;;;11.70;99.90;;;;;;5065925;23;20154;-69
2022/10/03 08:54:07;;;;;;;7.93;4.43;;;11.70;99.90;;;;;;5065998;23;20185;-70
2022/10/03 08:56:14;;;;;;;5.27;3.43;;;11.90;99.90;;;;;;5066220;23;20600;-70
2022/10/03 08:58:32;;;;;;;4.33;3.23;;;12.30;99.90;;;;;;5067183;23;20634;-69
2022/10/03 09:00:56;;;;;;;5.30;3.50;;;12.40;99.90;;;;;;5066001;23;20158;-68
2022/10/03 09:03:34;;;;;;;4.00;3.13;;;12.40;99.90;;;;;;5069590;23;20162;-72
2022/10/03 09:06:02;;;;;;;5.27;3.30;;;12.50;99.90;;;;;;5067628;23;20193;-66
2022/10/03 09:08:32;;;;;;;8.47;4.37;;;12.50;98.80;;;;;;5067996;23;20192;-71
2022/10/03 09:10:53;;;;;;;5.67;3.27;;;12.50;99.60;;;;;;5067430;23;20241;-70
2022/10/03 09:13:22;;;;;;;5.20;3.63;;;12.30;99.10;;;;;;5006725;23;20184;-67
2022/10/03 09:15:52;;;;;;;5.63;4.50;;;12.50;99.90;;;;;;5066307;23;20237;-68
2022/10/03 09:18:05;;;;;;;7.27;4.30;;;12.30;99.60;;;;;;5056364;23;20173;-68
2022/10/03 09:20:09;;;;;;;5.73;3.57;;;11.80;99.90;;;;;;5065520;23;20260;-67
2022/10/03 09:22:41;;;;;;;7.03;4.13;;;11.90;99.90;;;;;;5065162;23;20170;-69
2022/10/03 09:25:12;;;;;;;6.43;4.40;;;12.50;99.80;;;;;;5054903;23;20206;-67
2022/10/03 09:27:24;;;;;;;5.10;3.70;;;12.50;99.20;;;;;;5065413;23;20163;-69
2022/10/03 09:29:27;;;;;;;6.97;4.10;;;12.30;99.90;;;;;;5065363;23;20205;-68
2022/10/03 09:31:56;;;;;;;6.07;4.43;;;12.40;99.90;;;;;;5064676;23;20517;-68
2022/10/03 09:34:09;;;;;;;5.83;4.00;;;12.80;99.90;;;;;;5065307;23;20190;-68
2022/10/03 09:36:48;;;;;;;6.30;4.60;;;13.10;99.60;;;;;;5065232;23;20639;-68
2022/10/03 09:39:13;;;;;;;5.27;4.53;;;13.70;98.30;;;;;;5065309;23;20682;-69
2022/10/03 09:41:33;;;;;;;6.27;4.07;;;14.40;96.70;;;;;;5064752;23;20154;-69
2022/10/03 09:44:11;;;;;;;5.73;3.50;;;13.70;93.60;;;;;;5065209;23;20529;-69
2022/10/03 09:46:36;;;;;;;5.23;3.63;;;14.20;93.40;;;;;;5039627;23;20194;-69
2022/10/03 09:48:51;;;;;;;7.80;4.00;;;13.50;92.60;;;;;;5039436;23;20254;-69
2022/10/03 09:51:03;;;;;;;6.07;4.17;;;13.50;94.40;;;;;;5038875;23;20159;-70
2022/10/03 09:53:34;;;;;;;6.37;3.57;;;13.80;95.00;;;;;;5065158;23;20182;-71
2022/10/03 09:55:53;;;;;;;7.47;4.03;;;13.60;93.70;;;;;;5065324;23;20166;-69
2022/10/03 09:58:04;;;;;;;6.30;3.67;;;13.70;93.40;;;;;;5065202;23;20167;-70
2022/10/03 10:00:15;;;;;;;6.10;3.77;;;13.10;93.70;;;;;;5065322;23;20190;-69
2022/10/03 10:02:45;;;;;;;5.87;3.53;;;13.30;94.60;;;;;;5065262;23;20162;-69
2022/10/03 10:05:16;;;;;;;7.60;3.33;;;13.40;94.60;;;;;;5065305;23;20225;-71
2022/10/03 10:07:22;;;;;;;6.53;3.87;;;14.00;92.10;;;;;;5066411;23;20186;-71
2022/10/03 10:09:59;;;;;;;3.40;3.10;;;14.20;90.50;;;;;;5066655;23;20158;-71
2022/10/03 10:12:05;;;;;;;7.20;3.30;;;14.80;87.60;;;;;;5064833;23;20166;-69
2022/10/03 10:14:27;;;;;;;4.43;3.03;;;15.60;83.50;;;;;;5066550;23;20179;-68
2022/10/03 10:16:44;;;;;;;3.70;2.60;;;15.60;79.50;;;;;;5066440;23;20170;-68
2022/10/03 10:19:03;;;;;;;8.07;4.63;;;15.10;77.90;;;;;;5066630;23;20162;-69
2022/10/03 10:21:29;;;;;;;6.13;3.33;;;14.50;84.10;;;;;;5065747;23;20166;-68
2022/10/03 10:23:49;;;;;;;4.70;2.70;;;14.80;85.00;;;;;;5040790;23;20186;-70
2022/10/03 10:26:49;;;;;;;3.73;2.90;;;16.00;84.20;;;;;;5066681;23;20194;-70
2022/10/03 10:29:32;;;;;;;5.67;2.60;;;16.60;81.40;;;;;;4968439;23;20173;-69
2022/10/03 10:31:56;;;;;;;4.90;2.87;;;18.30;68.30;;;;;;4968064;23;20195;-69
2022/10/03 10:34:53;;;;;;;4.03;2.60;;;18.80;65.00;;;;;;5006831;23;20811;-69
2022/10/03 10:37:42;;;;;;;4.20;2.60;;;18.80;71.10;;;;;;5042138;23;20186;-68
2022/10/03 10:40:20;;;;;;;4.10;2.73;;;18.10;61.40;;;;;;4979890;23;20239;-69
2022/10/03 10:42:24;;;;;;;3.77;2.87;;;17.30;65.50;;;;;;5042107;23;20185;-71
2022/10/03 10:45:14;;;;;;;3.60;2.65;;;18.20;60.20;;;;;;5041994;23;20186;-70
2022/10/03 10:47:49;;;;;;;6.40;3.10;;;17.90;61.00;;;;;;5040563;23;20166;-70
2022/10/03 10:50:02;;;;;;;5.97;2.73;;;18.30;64.10;;;;;;5016612;23;20159;-69
2022/10/03 10:52:44;;;;;;;4.97;3.10;;;18.70;57.00;;;;;;5041475;23;20187;-67
2022/10/03 10:55:03;;;;;;;5.37;3.17;;;19.00;59.70;;;;;;5042119;23;20632;-68
2022/10/03 10:57:59;;;;;;;7.03;2.70;;;20.00;51.60;;;;;;5040502;23;20228;-70
2022/10/03 11:00:15;;;;;;;6.23;3.30;;;19.70;55.20;;;;;;5019522;23;20235;-71
2022/10/03 11:02:50;;;;;;;4.87;2.47;;;21.30;53.50;;;;;;5040573;23;20170;-69
2022/10/03 11:05:43;;;;;;;4.27;2.20;;;21.90;47.30;;;;;;5042366;23;20186;-69
2022/10/03 11:08:21;;;;;;;4.57;2.53;;;22.10;47.20;;;;;;5042020;23;20155;-70
2022/10/03 11:11:18;;;;;;;2.20;2.00;;;22.70;45.50;;;;;;5041346;23;20167;-69
2022/10/03 11:13:43;;;;;;;2.40;1.80;;;22.90;40.40;;;;;;5041976;23;20899;-68
2022/10/03 11:15:55;;;;;;;3.60;2.53;;;20.10;50.10;;;;;;5041904;23;20742;-72
2022/10/03 11:18:40;;;;;;;3.80;2.47;;;19.50;54.00;;;;;;5039935;23;20374;-72
2022/10/03 11:21:03;;;;;;;5.43;3.20;;;18.60;56.60;;;;;;5015773;23;20164;-72
2022/10/03 11:23:12;;;;;;;3.67;2.50;;;17.90;60.90;;;;;;5042155;23;20187;-72
2022/10/03 11:25:49;;;;;;;4.00;2.73;;;17.50;68.60;;;;;;5041755;23;20191;-71
2022/10/03 11:28:15;;;;;;;5.00;2.93;;;17.50;65.90;;;;;;5016592;23;20166;-71
2022/10/03 11:30:56;;;;;;;3.70;2.40;;;17.10;65.80;;;;;;5039843;23;20196;-71
2022/10/03 11:33:48;;;;;;;5.10;2.40;;;16.70;70.80;;;;;;5050312;23;20181;-71
2022/10/03 11:36:26;;;;;;;3.47;2.23;;;16.20;67.30;;;;;;5015987;23;20830;-71
2022/10/03 11:38:35;;;;;;;5.07;2.37;;;15.90;75.20;;;;;;5065286;23;20560;-71
2022/10/03 11:40:55;;;;;;;4.70;2.13;;;16.00;71.10;;;;;;5038424;23;20167;-71
2022/10/03 11:43:25;;;;;;;3.73;2.17;;;15.80;78.80;;;;;;5064924;23;20186;-72
2022/10/03 11:45:41;;;;;;;4.30;2.60;;;15.20;87.50;;;;;;5064921;23;20536;-71
2022/10/03 11:48:25;;;;;;;4.57;2.60;;;14.80;87.40;;;;;;5064988;23;20158;-72
2022/10/03 11:50:48;;;;;;;3.13;2.40;;;15.00;88.80;;;;;;5051025;23;20489;-71
2022/10/03 11:53:37;;;;;;;5.10;2.60;;;17.90;66.10;;;;;;5040813;23;20238;-71
2022/10/03 11:55:53;;;;;;;5.97;2.50;;;20.40;54.20;;;;;;5031642;23;20170;-72
2022/10/03 11:58:24;;;;;;;2.43;2.23;;;21.00;52.80;;;;;;5040835;23;20170;-72
2022/10/03 12:00:27;;;;;;;4.03;2.07;;;21.50;55.40;;;;;;5040092;23;20163;-73
2022/10/03 12:02:43;;;;;;;2.47;2.23;;;23.10;44.90;;;;;;5041008;23;20167;-73
2022/10/03 12:04:57;;;;;;;2.87;2.30;;;24.80;40.70;;;;;;5066445;23;20190;-74
2022/10/03 12:09:53;;;;;;;3.47;2.30;;;25.60;39.00;;;;;;5066536;23;20254;-73
2022/10/03 12:12:12;;;;;;;3.37;2.17;;;25.30;40.50;;;;;;5016083;23;20638;-74
2022/10/03 12:14:29;;;;;;;3.77;2.13;;;25.70;40.40;;;;;;5040505;23;20675;-74
2022/10/03 12:17:12;;;;;;;3.60;1.83;;;26.70;36.60;;;;;;5040621;23;20202;-73
2022/10/03 12:19:30;;;;;;;3.47;2.20;;;25.00;37.80;;;;;;5040766;23;20159;-72
2022/10/03 12:22:12;;;;;;;3.30;2.23;;;23.00;42.00;;;;;;5039879;23;20162;-73
2022/10/03 12:24:17;;;;;;;3.13;1.90;;;21.90;43.40;;;;;;5040549;23;20187;-73
2022/10/03 12:26:42;;;;;;;3.73;2.00;;;20.00;51.50;;;;;;5066178;23;20194;-73
2022/10/03 12:28:49;;;;;;;2.80;1.80;;;19.30;57.30;;;;;;5065746;23;20652;-74
2022/10/03 12:31:23;;;;;;;3.20;1.90;;;19.00;57.40;;;;;;5065348;23;20645;-74